Airfield :
LOGIN :

Register | Disclaimer

   EN    FR    IT 

 










Legend :    VFR   Marginal VFR   IFR   Intensive IFR   Very Intensive IFR
Visi :
Ceiling :
>= 8 km
>= 3000ft
5 to 8 km
1000 to 3000 ft
1500m to 5 km
500 to 1000 ft
800 to 1500m
200 to 500 ft
< 800m
< 200 ft
Symbols :   Thunderstorms  Fog  Heavy snow  Heavy precipitations  Wind > 20 kt
SIGMETs :     Misc.  Thunderstorms  Icing  Turbulence  Mountain Waves  Volcanic Ashes






- Airport Elevation : 517 ft
- IATA code : GML


UKKM - Antonov

CURRENT METAR :
  • 131800Z AUTO 13007MPS 5000 // NCD 09/08 Q1019

EXPIRED METARs :
  • 131730Z AUTO 13007MPS 5000 // NCD 09/09 Q1019
  • 131700Z AUTO 13006MPS 6000 // NCD 09/09 Q1019
  • 131630Z AUTO 13007MPS 6000 // NCD 09/09 Q1019
  • 131600Z AUTO 13006MPS 6000 // NCD 09/09 Q1019
  • 131530Z AUTO 13007MPS 6000 // ///012/// 09/09 Q1019
  • 131500Z AUTO 13007MPS 6000 // ///012/// 10/09 Q1019

TAF TAF UKKM
Valid from the 13 at 07:00 until the 14 at 06:00 UTC


130609Z 1307/1406 14006G11MPS 9999 BKN010
TEMPO 1307/1309 4000 BR BKN004
TEMPO 1309/1317 16009G14MPS
TEMPO 1317/1406 2000 BR BKN005



MET'MAP, your aeronautical weather chart ! - Copyright ORBIFLY December 2007 - Disclaimer

ORBIFLY MET'MAP TEAM :

Programming & Development : Alexandra Zaïnal
Concept & Development : Baudouin d'Aumeries
Co-Development & Prog : Marc-Olivier Méhu
Technical & hardware support : Manuel Goepfert

Contact : metmap@orbifly.com




SOURCES & CREDITS :

   NOAA